Terminal Aerodrome Forecast
Issued by NWS

Home | Current Version | Previous Version | Text Only | Print | Product List | Glossary On
Versions: 1 2 3 4 5 6 7 8 9 10 11 12 13 14 15 16 17 18 19 20 21 22 23 24
000
FTAK31 PANC 260812 AAB
TAFATK
TAF AMD
PATK 260812Z 2608/2706 VRB03KT 4SM -SN BR OVC019
      TEMPO 2608/2612 1SM -SN
     FM261200 VRB03KT 4SM -SN BR OVC012
     FM261300 VRB03KT P6SM BKN015
     FM262100 VRB03KT P6SM BKN200=

USA.gov is the U.S. government's official web portal to all federal, state and local government web resources and services.